LNE213 SKBQ-SEQM
Flight info
| Callsign | LNE213 |
|---|---|
| Flight time | N/A |
| Altitude | 24000 |
| Route | VOVLU2D VOVLU W46 MGN/N0470F310 UW3 MRN/N0470F320 UW26 RNG/N0470F330 UP778 BOKAN UP533 QIT |
| Aircraft | B763/H-SDE3FGHIM3RWXY/LB1 |
Departure
| Time | N/A |
|---|---|
| Airport | Ernesto Cortissoz International Airport (SKBQ) |
Arrival
| Time | 2026-04-28 21:25 |
|---|---|
| Airport | Mariscal Sucre International Airport (SEQM) |
| Time | Latitude | Longitude | Altitude | Speed | Heading |
|---|---|---|---|---|---|
| 2026-04-28 20:32 | 6.06739 | -75.36207 | 31274 ft | 486 kts | 214° |
| 2026-04-28 20:33 | 6.00592 | -75.40022 | 31263 ft | 488 kts | 210° |
| 2026-04-28 20:33 | 5.94962 | -75.42799 | 31262 ft | 469 kts | 202° |
| 2026-04-28 20:33 | 5.74566 | -75.51032 | 31058 ft | 464 kts | 201° |
| 2026-04-28 20:34 | 5.33013 | -75.66682 | 31238 ft | 464 kts | 203° |
| 2026-04-28 20:34 | 4.39352 | -76.02917 | 31143 ft | 469 kts | 199° |
| 2026-04-28 20:35 | 3.65679 | -76.31303 | 31246 ft | 471 kts | 198° |
| 2026-04-28 20:35 | 3.60613 | -76.33013 | 31113 ft | 472 kts | 199° |
| 2026-04-28 20:35 | 3.57443 | -76.34139 | 31446 ft | 462 kts | 199° |
| 2026-04-28 20:36 | 3.56355 | -76.34534 | 31584 ft | 461 kts | 199° |
| 2026-04-28 20:36 | 3.53429 | -76.35608 | 31949 ft | 458 kts | 200° |
| 2026-04-28 20:36 | 3.50580 | -76.36670 | 32308 ft | 455 kts | 200° |
| 2026-04-28 20:36 | 3.47641 | -76.37775 | 32690 ft | 452 kts | 200° |
| 2026-04-28 20:37 | 3.44699 | -76.38887 | 33061 ft | 449 kts | 200° |
| 2026-04-28 20:37 | 3.38828 | -76.41399 | 33093 ft | 459 kts | 209° |
| 2026-04-28 20:38 | 3.33516 | -76.44396 | 33107 ft | 468 kts | 209° |
| 2026-04-28 20:38 | 3.27764 | -76.47656 | 33115 ft | 478 kts | 209° |
| 2026-04-28 20:39 | 3.22202 | -76.50817 | 33112 ft | 485 kts | 209° |
| 2026-04-28 20:39 | 3.16351 | -76.54147 | 33141 ft | 476 kts | 209° |
| 2026-04-28 20:40 | 3.10721 | -76.57355 | 33164 ft | 457 kts | 209° |
| 2026-04-28 20:40 | 3.05201 | -76.60500 | 33179 ft | 455 kts | 209° |
| 2026-04-28 20:41 | 2.99651 | -76.63660 | 33171 ft | 463 kts | 209° |
| 2026-04-28 20:41 | 2.94040 | -76.66856 | 33151 ft | 462 kts | 209° |
| 2026-04-28 20:42 | 2.88474 | -76.70025 | 33189 ft | 458 kts | 209° |
| 2026-04-28 20:42 | 2.82854 | -76.73225 | 33198 ft | 460 kts | 209° |
| 2026-04-28 20:43 | 2.77260 | -76.76408 | 33160 ft | 460 kts | 209° |
| 2026-04-28 20:43 | 2.71682 | -76.79584 | 33113 ft | 459 kts | 209° |
| 2026-04-28 20:44 | 2.66127 | -76.82744 | 33139 ft | 460 kts | 209° |
| 2026-04-28 20:44 | 2.60559 | -76.85913 | 33152 ft | 461 kts | 209° |
| 2026-04-28 20:45 | 2.54981 | -76.89087 | 33168 ft | 460 kts | 209° |
| 2026-04-28 20:45 | 2.49404 | -76.92259 | 33237 ft | 460 kts | 209° |
| 2026-04-28 20:46 | 2.43811 | -76.95441 | 33186 ft | 461 kts | 209° |
| 2026-04-28 20:46 | 2.38253 | -76.98603 | 33144 ft | 459 kts | 209° |
| 2026-04-28 20:47 | 2.32733 | -77.01743 | 33073 ft | 459 kts | 209° |
| 2026-04-28 20:47 | 2.27103 | -77.04944 | 33011 ft | 459 kts | 209° |
| 2026-04-28 20:48 | 2.21566 | -77.08093 | 33009 ft | 459 kts | 209° |
| 2026-04-28 20:48 | 2.16003 | -77.11256 | 33001 ft | 460 kts | 209° |
| 2026-04-28 20:49 | 2.10395 | -77.14445 | 32998 ft | 459 kts | 209° |
| 2026-04-28 20:49 | 2.04861 | -77.17590 | 32989 ft | 458 kts | 209° |
| 2026-04-28 20:50 | 1.99295 | -77.20754 | 32966 ft | 460 kts | 209° |
| 2026-04-28 20:50 | 1.93732 | -77.23917 | 32986 ft | 459 kts | 209° |
| 2026-04-28 20:51 | 1.88149 | -77.27090 | 33024 ft | 460 kts | 209° |
| 2026-04-28 20:51 | 1.82963 | -77.30038 | 33014 ft | 461 kts | 209° |
| 2026-04-28 20:52 | 1.77371 | -77.33215 | 33028 ft | 460 kts | 209° |
| 2026-04-28 20:52 | 1.71778 | -77.36394 | 33008 ft | 461 kts | 209° |
| 2026-04-28 20:53 | 1.63407 | -77.41151 | 33060 ft | 460 kts | 209° |
| 2026-04-28 20:53 | 1.57853 | -77.44305 | 33080 ft | 461 kts | 209° |
| 2026-04-28 20:54 | 1.52256 | -77.47485 | 33073 ft | 461 kts | 209° |
| 2026-04-28 20:54 | 1.46637 | -77.50678 | 33072 ft | 461 kts | 209° |
| 2026-04-28 20:55 | 1.41221 | -77.53754 | 33108 ft | 461 kts | 209° |
| 2026-04-28 20:55 | 1.35598 | -77.56949 | 33180 ft | 463 kts | 209° |
| 2026-04-28 20:56 | 1.30105 | -77.60068 | 33182 ft | 463 kts | 209° |
| 2026-04-28 20:56 | 1.24510 | -77.63246 | 33241 ft | 461 kts | 209° |
| 2026-04-28 20:57 | 1.19048 | -77.66348 | 33309 ft | 461 kts | 209° |
| 2026-04-28 20:57 | 1.13688 | -77.69392 | 33339 ft | 462 kts | 209° |
| 2026-04-28 20:58 | 1.08089 | -77.72572 | 33397 ft | 462 kts | 209° |
| 2026-04-28 20:58 | 1.02527 | -77.75732 | 33304 ft | 443 kts | 209° |
| 2026-04-28 20:59 | 0.99739 | -77.77316 | 32711 ft | 438 kts | 208° |
| 2026-04-28 20:59 | 0.97156 | -77.78783 | 31856 ft | 441 kts | 208° |
| 2026-04-28 20:59 | 0.94466 | -77.80310 | 31093 ft | 440 kts | 208° |
| 2026-04-28 20:59 | 0.91764 | -77.81844 | 30266 ft | 440 kts | 208° |
| 2026-04-28 21:00 | 0.91111 | -77.82215 | 30069 ft | 440 kts | 208° |
| 2026-04-28 21:00 | 0.89121 | -77.83346 | 29605 ft | 435 kts | 208° |
| 2026-04-28 21:00 | 0.86459 | -77.84858 | 29015 ft | 430 kts | 208° |
| 2026-04-28 21:00 | 0.83966 | -77.86273 | 28423 ft | 426 kts | 208° |
| 2026-04-28 21:01 | 0.81545 | -77.87665 | 27879 ft | 420 kts | 212° |
| 2026-04-28 21:01 | 0.80206 | -77.88584 | 27891 ft | 411 kts | 215° |
| 2026-04-28 21:01 | 0.78846 | -77.89593 | 27929 ft | 406 kts | 215° |
| 2026-04-28 21:01 | 0.76510 | -77.91307 | 27928 ft | 412 kts | 215° |
| 2026-04-28 21:02 | 0.74345 | -77.92905 | 27948 ft | 420 kts | 215° |
| 2026-04-28 21:02 | 0.72054 | -77.94602 | 28049 ft | 425 kts | 215° |
| 2026-04-28 21:02 | 0.69651 | -77.96386 | 28254 ft | 425 kts | 216° |
| 2026-04-28 21:02 | 0.67274 | -77.98153 | 28423 ft | 427 kts | 215° |
| 2026-04-28 21:03 | 0.64852 | -77.99955 | 28545 ft | 423 kts | 216° |
| 2026-04-28 21:03 | 0.62535 | -78.01681 | 28447 ft | 410 kts | 215° |
| 2026-04-28 21:03 | 0.60271 | -78.03368 | 28471 ft | 394 kts | 215° |
| 2026-04-28 21:03 | 0.58075 | -78.05003 | 28469 ft | 389 kts | 215° |
| 2026-04-28 21:04 | 0.53796 | -78.08191 | 28405 ft | 369 kts | 215° |
| 2026-04-28 21:04 | 0.51776 | -78.09695 | 28401 ft | 354 kts | 215° |
| 2026-04-28 21:04 | 0.49807 | -78.11163 | 28392 ft | 340 kts | 215° |
| 2026-04-28 21:05 | 0.47943 | -78.12552 | 28246 ft | 331 kts | 214° |
| 2026-04-28 21:05 | 0.46143 | -78.13892 | 27952 ft | 326 kts | 215° |
| 2026-04-28 21:05 | 0.44319 | -78.15250 | 27679 ft | 321 kts | 214° |
| 2026-04-28 21:05 | 0.42587 | -78.16540 | 27414 ft | 316 kts | 214° |
| 2026-04-28 21:06 | 0.40896 | -78.17799 | 27158 ft | 310 kts | 215° |
| 2026-04-28 21:06 | 0.39162 | -78.19090 | 26893 ft | 305 kts | 214° |
| 2026-04-28 21:06 | 0.37431 | -78.20380 | 26626 ft | 299 kts | 214° |
| 2026-04-28 21:06 | 0.35764 | -78.21620 | 26371 ft | 293 kts | 214° |
| 2026-04-28 21:07 | 0.34153 | -78.22821 | 26124 ft | 287 kts | 214° |
| 2026-04-28 21:07 | 0.32542 | -78.24020 | 25873 ft | 282 kts | 214° |
| 2026-04-28 21:07 | 0.31080 | -78.25109 | 25651 ft | 278 kts | 214° |
| 2026-04-28 21:07 | 0.29514 | -78.26275 | 25456 ft | 275 kts | 214° |
| 2026-04-28 21:08 | 0.27990 | -78.27409 | 25335 ft | 273 kts | 214° |
| 2026-04-28 21:08 | 0.26434 | -78.28567 | 25121 ft | 277 kts | 214° |
| 2026-04-28 21:08 | 0.24962 | -78.29662 | 24896 ft | 281 kts | 214° |
| 2026-04-28 21:08 | 0.23367 | -78.30850 | 24636 ft | 281 kts | 214° |
| 2026-04-28 21:09 | 0.21805 | -78.32013 | 24365 ft | 280 kts | 214° |
| 2026-04-28 21:09 | 0.20230 | -78.33186 | 24088 ft | 277 kts | 214° |
| 2026-04-28 21:09 | 0.18751 | -78.34287 | 23826 ft | 274 kts | 214° |
| 2026-04-28 21:09 | 0.17215 | -78.35431 | 23558 ft | 272 kts | 214° |
| 2026-04-28 21:10 | 0.15702 | -78.36557 | 23309 ft | 272 kts | 215° |
| 2026-04-28 21:10 | 0.14156 | -78.37708 | 23060 ft | 273 kts | 215° |
| 2026-04-28 21:10 | 0.12697 | -78.38794 | 22819 ft | 274 kts | 214° |
| 2026-04-28 21:10 | 0.11221 | -78.39893 | 22564 ft | 274 kts | 215° |
| 2026-04-28 21:11 | 0.09702 | -78.41024 | 22300 ft | 273 kts | 215° |
| 2026-04-28 21:11 | 0.08167 | -78.42167 | 22037 ft | 271 kts | 215° |
| 2026-04-28 21:11 | 0.06935 | -78.43084 | 21828 ft | 270 kts | 215° |
| 2026-04-28 21:11 | 0.05119 | -78.44437 | 21513 ft | 269 kts | 215° |
| 2026-04-28 21:12 | 0.03688 | -78.45502 | 21251 ft | 268 kts | 214° |
| 2026-04-28 21:12 | 0.02175 | -78.46629 | 20954 ft | 268 kts | 214° |
| 2026-04-28 21:12 | 0.00672 | -78.47747 | 20679 ft | 268 kts | 214° |
| 2026-04-28 21:12 | -0.00819 | -78.48857 | 20402 ft | 266 kts | 215° |
| 2026-04-28 21:13 | -0.02255 | -78.49926 | 20114 ft | 264 kts | 214° |
| 2026-04-28 21:13 | -0.03868 | -78.50754 | 19810 ft | 257 kts | 187° |
| 2026-04-28 21:13 | -0.05626 | -78.50799 | 19631 ft | 248 kts | 172° |
| 2026-04-28 21:13 | -0.07376 | -78.50666 | 19335 ft | 255 kts | 173° |
| 2026-04-28 21:14 | -0.09177 | -78.50517 | 18926 ft | 261 kts | 172° |
| 2026-04-28 21:14 | -0.10985 | -78.50352 | 18588 ft | 260 kts | 171° |
| 2026-04-28 21:14 | -0.12780 | -78.50178 | 18293 ft | 257 kts | 171° |
| 2026-04-28 21:14 | -0.14463 | -78.50023 | 18039 ft | 254 kts | 172° |
| 2026-04-28 21:15 | -0.16194 | -78.49893 | 17820 ft | 247 kts | 172° |
| 2026-04-28 21:15 | -0.17770 | -78.49770 | 17637 ft | 243 kts | 172° |
| 2026-04-28 21:15 | -0.19454 | -78.49638 | 17412 ft | 244 kts | 172° |
| 2026-04-28 21:15 | -0.21181 | -78.49500 | 17131 ft | 247 kts | 172° |
| 2026-04-28 21:16 | -0.22908 | -78.49364 | 16842 ft | 247 kts | 172° |
| 2026-04-28 21:16 | -0.24636 | -78.49227 | 16525 ft | 246 kts | 172° |
| 2026-04-28 21:16 | -0.26337 | -78.49092 | 16233 ft | 245 kts | 172° |
| 2026-04-28 21:16 | -0.28031 | -78.48959 | 15927 ft | 244 kts | 173° |
| 2026-04-28 21:17 | -0.29736 | -78.48823 | 15625 ft | 243 kts | 172° |
| 2026-04-28 21:17 | -0.31441 | -78.48689 | 15317 ft | 242 kts | 173° |
| 2026-04-28 21:17 | -0.33138 | -78.48553 | 15030 ft | 242 kts | 173° |
| 2026-04-28 21:17 | -0.34835 | -78.48418 | 14746 ft | 241 kts | 172° |
| 2026-04-28 21:18 | -0.36419 | -78.48019 | 14659 ft | 226 kts | 154° |
| 2026-04-28 21:18 | -0.37815 | -78.47349 | 14649 ft | 220 kts | 148° |
| 2026-04-28 21:18 | -0.39155 | -78.46512 | 14409 ft | 237 kts | 142° |
| 2026-04-28 21:18 | -0.40479 | -78.45449 | 13938 ft | 245 kts | 135° |
| 2026-04-28 21:19 | -0.41659 | -78.44217 | 13447 ft | 248 kts | 123° |
| 2026-04-28 21:19 | -0.42288 | -78.42612 | 12827 ft | 253 kts | 92° |
| 2026-04-28 21:19 | -0.42012 | -78.40904 | 12262 ft | 250 kts | 60° |
| 2026-04-28 21:19 | -0.40907 | -78.39681 | 12159 ft | 230 kts | 30° |
| 2026-04-28 21:20 | -0.39515 | -78.39008 | 12017 ft | 218 kts | 25° |
| 2026-04-28 21:20 | -0.38159 | -78.38367 | 11852 ft | 211 kts | 26° |
| 2026-04-28 21:20 | -0.36820 | -78.37740 | 11770 ft | 210 kts | 25° |
| 2026-04-28 21:20 | -0.35472 | -78.37116 | 11650 ft | 215 kts | 25° |
| 2026-04-28 21:21 | -0.34106 | -78.36486 | 11516 ft | 215 kts | 25° |
| 2026-04-28 21:21 | -0.32754 | -78.35866 | 11402 ft | 212 kts | 25° |
| 2026-04-28 21:21 | -0.31419 | -78.35246 | 11267 ft | 210 kts | 26° |
| 2026-04-28 21:21 | -0.30101 | -78.34769 | 11107 ft | 210 kts | 4° |
| 2026-04-28 21:22 | -0.28636 | -78.34790 | 10910 ft | 214 kts | 359° |
| 2026-04-28 21:22 | -0.27212 | -78.34834 | 10624 ft | 204 kts | 359° |
| 2026-04-28 21:22 | -0.25819 | -78.34881 | 10348 ft | 189 kts | 359° |
| 2026-04-28 21:22 | -0.24557 | -78.34930 | 10032 ft | 174 kts | 359° |
| 2026-04-28 21:23 | -0.23404 | -78.34976 | 9878 ft | 156 kts | 359° |
| 2026-04-28 21:23 | -0.22279 | -78.35020 | 9677 ft | 166 kts | 359° |
| 2026-04-28 21:23 | -0.21099 | -78.35070 | 9459 ft | 172 kts | 358° |
| 2026-04-28 21:23 | -0.20084 | -78.35107 | 9230 ft | 170 kts | 359° |
| 2026-04-28 21:24 | -0.18903 | -78.35158 | 8944 ft | 168 kts | 358° |
| 2026-04-28 21:24 | -0.17742 | -78.35206 | 8699 ft | 165 kts | 357° |
| 2026-04-28 21:24 | -0.16603 | -78.35261 | 8499 ft | 160 kts | 358° |
| 2026-04-28 21:24 | -0.15520 | -78.35315 | 8270 ft | 165 kts | 359° |
| 2026-04-28 21:25 | -0.14354 | -78.35361 | 8076 ft | 167 kts | 358° |
| 2026-04-28 21:25 | -0.13284 | -78.35406 | 7962 ft | 154 kts | 359° |
| 2026-04-28 21:25 | -0.12443 | -78.35434 | 7913 ft | 82 kts | 356° |
| 2026-04-28 21:25 | -0.12074 | -78.35452 | 7892 ft | 36 kts | 357° |
| 2026-04-28 21:26 | -0.11828 | -78.35471 | 7880 ft | 32 kts | 347° |
| 2026-04-28 21:26 | -0.11681 | -78.35541 | 7873 ft | 11 kts | 328° |
| 2026-04-28 21:26 | -0.11633 | -78.35571 | 7870 ft | 5 kts | 328° |
| 2026-04-28 21:26 | -0.11612 | -78.35593 | 7869 ft | 3 kts | 295° |
| 2026-04-28 21:27 | -0.11608 | -78.35614 | 7869 ft | 2 kts | 273° |
| 2026-04-28 21:27 | -0.11609 | -78.35626 | 7869 ft | 1 kts | 258° |
| 2026-04-28 21:27 | -0.11616 | -78.35635 | 7869 ft | 2 kts | 224° |
| 2026-04-28 21:27 | -0.11641 | -78.35647 | 7869 ft | 5 kts | 195° |
| 2026-04-28 21:28 | -0.11675 | -78.35648 | 7870 ft | 4 kts | 174° |
| 2026-04-28 21:28 | -0.11706 | -78.35646 | 7872 ft | 3 kts | 176° |
| 2026-04-28 21:28 | -0.11740 | -78.35644 | 7873 ft | 7 kts | 176° |
| 2026-04-28 21:28 | -0.11804 | -78.35640 | 7876 ft | 10 kts | 176° |
| 2026-04-28 21:29 | -0.11891 | -78.35635 | 7880 ft | 12 kts | 176° |
| 2026-04-28 21:29 | -0.11964 | -78.35632 | 7883 ft | 8 kts | 177° |
| 2026-04-28 21:29 | -0.12010 | -78.35629 | 7886 ft | 4 kts | 177° |
| 2026-04-28 21:29 | -0.12046 | -78.35628 | 7888 ft | 5 kts | 178° |
| 2026-04-28 21:30 | -0.12089 | -78.35626 | 7890 ft | 6 kts | 178° |
| 2026-04-28 21:30 | -0.12146 | -78.35624 | 7893 ft | 9 kts | 177° |
| 2026-04-28 21:30 | -0.12210 | -78.35621 | 7896 ft | 8 kts | 177° |
| 2026-04-28 21:30 | -0.12263 | -78.35619 | 7900 ft | 7 kts | 177° |
| 2026-04-28 21:31 | -0.12312 | -78.35616 | 7902 ft | 6 kts | 177° |
| 2026-04-28 21:31 | -0.12349 | -78.35626 | 7904 ft | 4 kts | 227° |
| 2026-04-28 21:31 | -0.12360 | -78.35664 | 7903 ft | 6 kts | 256° |
| 2026-04-28 21:31 | -0.12360 | -78.35667 | 7903 ft | 0 kts | 253° |
| 2026-04-28 21:32 | -0.12363 | -78.35671 | 7903 ft | 2 kts | 236° |
| 2026-04-28 21:32 | -0.12418 | -78.35679 | 7905 ft | 14 kts | 175° |
| 2026-04-28 21:32 | -0.12518 | -78.35671 | 7911 ft | 13 kts | 176° |
| 2026-04-28 21:32 | -0.12605 | -78.35667 | 7917 ft | 12 kts | 177° |
| 2026-04-28 21:33 | -0.12701 | -78.35671 | 7920 ft | 14 kts | 199° |
| 2026-04-28 21:33 | -0.12777 | -78.35679 | 7922 ft | 7 kts | 179° |
| 2026-04-28 21:33 | -0.12806 | -78.35678 | 7924 ft | 2 kts | 178° |
| 2026-04-28 21:33 | -0.12820 | -78.35678 | 7925 ft | 1 kts | 178° |
| 2026-04-28 21:34 | -0.12833 | -78.35677 | 7926 ft | 1 kts | 178° |
| 2026-04-28 21:34 | -0.12846 | -78.35677 | 7927 ft | 1 kts | 178° |
| 2026-04-28 21:34 | -0.12862 | -78.35677 | 7928 ft | 2 kts | 178° |
| 2026-04-28 21:34 | -0.12879 | -78.35677 | 7929 ft | 0 kts | 189° |
| 2026-04-28 21:35 | -0.12881 | -78.35677 | 7929 ft | 0 kts | 194° |
| 2026-04-28 21:35 | -0.12893 | -78.35687 | 7929 ft | 5 kts | 227° |
| 2026-04-28 21:35 | -0.12891 | -78.35731 | 7928 ft | 7 kts | 279° |
| 2026-04-28 21:35 | -0.12892 | -78.35762 | 7927 ft | 2 kts | 267° |
| 2026-04-28 21:36 | -0.12892 | -78.35766 | 7927 ft | 0 kts | 267° |